sensor_id;sensor_type;location;lat;lon;timestamp;pressure;altitude;pressure_sealevel;temperature;humidity
45441;BME280;31189;38.790;-77.084;2023-09-12T00:01:32;101286.11;;;30.79;40.55
45441;BME280;31189;38.790;-77.084;2023-09-12T00:03:58;101290.82;;;31.01;42.00
45441;BME280;31189;38.790;-77.084;2023-09-12T00:06:23;101293.49;;;30.59;41.97
45441;BME280;31189;38.790;-77.084;2023-09-12T00:08:49;101297.18;;;30.77;42.10
45441;BME280;31189;38.790;-77.084;2023-09-12T00:11:14;101300.83;;;30.78;42.75
45441;BME280;31189;38.790;-77.084;2023-09-12T00:13:41;101302.71;;;30.17;43.45
45441;BME280;31189;38.790;-77.084;2023-09-12T00:16:11;101303.56;;;30.67;42.90
45441;BME280;31189;38.790;-77.084;2023-09-12T00:18:32;101309.13;;;30.31;43.46
45441;BME280;31189;38.790;-77.084;2023-09-12T00:20:57;101313.86;;;30.63;43.86
45441;BME280;31189;38.790;-77.084;2023-09-12T00:23:23;101315.93;;;30.73;42.41
45441;BME280;31189;38.790;-77.084;2023-09-12T00:25:49;101321.82;;;30.80;43.48
45441;BME280;31189;38.790;-77.084;2023-09-12T00:28:14;101324.31;;;30.52;42.75
45441;BME280;31189;38.790;-77.084;2023-09-12T00:30:39;101323.39;;;30.26;43.20
45441;BME280;31189;38.790;-77.084;2023-09-12T00:33:05;101329.30;;;30.04;44.90
45441;BME280;31189;38.790;-77.084;2023-09-12T00:35:31;101332.19;;;30.16;45.18
45441;BME280;31189;38.790;-77.084;2023-09-12T00:37:57;101335.82;;;29.19;46.12
45441;BME280;31189;38.790;-77.084;2023-09-12T00:40:22;101342.31;;;29.24;45.03
45441;BME280;31189;38.790;-77.084;2023-09-12T00:42:48;101340.07;;;29.52;42.93
45441;BME280;31189;38.790;-77.084;2023-09-12T00:45:13;101345.59;;;29.78;44.55
45441;BME280;31189;38.790;-77.084;2023-09-12T00:47:39;101349.52;;;29.45;45.59
45441;BME280;31189;38.790;-77.084;2023-09-12T00:50:06;101354.18;;;29.96;45.19
45441;BME280;31189;38.790;-77.084;2023-09-12T00:52:31;101352.79;;;30.50;45.98
45441;BME280;31189;38.790;-77.084;2023-09-12T00:54:56;101357.02;;;30.03;45.51
45441;BME280;31189;38.790;-77.084;2023-09-12T00:57:22;101356.85;;;29.55;48.65
45441;BME280;31189;38.790;-77.084;2023-09-12T00:59:48;101361.65;;;29.70;48.63
45441;BME280;31189;38.790;-77.084;2023-09-12T01:02:13;101366.50;;;29.96;47.69
45441;BME280;31189;38.790;-77.084;2023-09-12T01:04:39;101368.55;;;30.26;47.84
45441;BME280;31189;38.790;-77.084;2023-09-12T01:07:04;101368.69;;;29.81;49.69
45441;BME280;31189;38.790;-77.084;2023-09-12T01:09:30;101371.74;;;30.51;49.62
45441;BME280;31189;38.790;-77.084;2023-09-12T01:11:56;101375.63;;;30.57;48.60
45441;BME280;31189;38.790;-77.084;2023-09-12T01:14:21;101374.74;;;30.42;47.95
45441;BME280;31189;38.790;-77.084;2023-09-12T01:16:47;101375.12;;;30.45;49.34
45441;BME280;31189;38.790;-77.084;2023-09-12T01:24:20;101382.34;;;30.34;48.37
45441;BME280;31189;38.790;-77.084;2023-09-12T01:26:36;101382.86;;;30.00;48.68
45441;BME280;31189;38.790;-77.084;2023-09-12T01:28:57;101383.49;;;29.77;50.43
45441;BME280;31189;38.790;-77.084;2023-09-12T01:31:20;101384.43;;;30.22;50.05
45441;BME280;31189;38.790;-77.084;2023-09-12T01:33:46;101383.01;;;30.07;50.39
45441;BME280;31189;38.790;-77.084;2023-09-12T01:36:11;101381.23;;;30.28;49.32
45441;BME280;31189;38.790;-77.084;2023-09-12T01:38:37;101382.36;;;29.86;49.95
45441;BME280;31189;38.790;-77.084;2023-09-12T01:41:03;101385.84;;;29.79;51.58
45441;BME280;31189;38.790;-77.084;2023-09-12T01:43:29;101387.97;;;29.11;53.03
45441;BME280;31189;38.790;-77.084;2023-09-12T01:45:55;101390.28;;;29.77;52.01
45441;BME280;31189;38.790;-77.084;2023-09-12T01:48:22;101393.88;;;28.73;53.97
45441;BME280;31189;38.790;-77.084;2023-09-12T01:50:46;101396.07;;;29.48;52.93
45441;BME280;31189;38.790;-77.084;2023-09-12T01:53:11;101398.10;;;28.88;56.03
45441;BME280;31189;38.790;-77.084;2023-09-12T01:55:37;101399.18;;;28.80;54.80
45441;BME280;31189;38.790;-77.084;2023-09-12T01:58:03;101402.35;;;28.67;55.28
45441;BME280;31189;38.790;-77.084;2023-09-12T02:00:28;101403.21;;;28.47;55.74
45441;BME280;31189;38.790;-77.084;2023-09-12T02:02:54;101404.31;;;28.01;57.12
45441;BME280;31189;38.790;-77.084;2023-09-12T02:05:21;101405.73;;;28.57;56.20
45441;BME280;31189;38.790;-77.084;2023-09-12T02:07:45;101406.06;;;28.56;56.83
45441;BME280;31189;38.790;-77.084;2023-09-12T02:10:10;101410.26;;;28.66;55.54
45441;BME280;31189;38.790;-77.084;2023-09-12T02:12:36;101408.73;;;28.31;56.76
45441;BME280;31189;38.790;-77.084;2023-09-12T02:15:01;101410.49;;;28.58;56.27
45441;BME280;31189;38.790;-77.084;2023-09-12T02:17:27;101412.39;;;28.86;56.21
45441;BME280;31189;38.790;-77.084;2023-09-12T02:19:53;101413.50;;;28.17;57.72
45441;BME280;31189;38.790;-77.084;2023-09-12T02:22:18;101415.03;;;27.85;59.39
45441;BME280;31189;38.790;-77.084;2023-09-12T02:24:44;101417.09;;;28.19;58.45
45441;BME280;31189;38.790;-77.084;2023-09-12T02:27:10;101419.68;;;27.92;58.33
45441;BME280;31189;38.790;-77.084;2023-09-12T02:29:36;101420.14;;;28.30;56.97
45441;BME280;31189;38.790;-77.084;2023-09-12T02:32:00;101432.41;;;28.76;58.13
45441;BME280;31189;38.790;-77.084;2023-09-12T02:34:26;101440.55;;;28.82;57.68
45441;BME280;31189;38.790;-77.084;2023-09-12T02:36:52;101447.11;;;28.34;57.55
45441;BME280;31189;38.790;-77.084;2023-09-12T02:39:17;101448.35;;;27.48;58.79
45441;BME280;31189;38.790;-77.084;2023-09-12T02:41:43;101451.68;;;28.13;56.62
45441;BME280;31189;38.790;-77.084;2023-09-12T02:44:09;101453.43;;;28.40;57.40
45441;BME280;31189;38.790;-77.084;2023-09-12T02:46:36;101449.86;;;28.66;57.41
45441;BME280;31189;38.790;-77.084;2023-09-12T02:49:00;101447.61;;;28.68;56.64
45441;BME280;31189;38.790;-77.084;2023-09-12T02:51:26;101441.30;;;28.27;57.89
45441;BME280;31189;38.790;-77.084;2023-09-12T02:53:51;101436.41;;;28.51;58.35
45441;BME280;31189;38.790;-77.084;2023-09-12T02:56:17;101435.09;;;28.28;58.64
45441;BME280;31189;38.790;-77.084;2023-09-12T02:58:46;101433.74;;;28.71;57.39
45441;BME280;31189;38.790;-77.084;2023-09-12T03:01:14;101430.39;;;29.15;55.96
45441;BME280;31189;38.790;-77.084;2023-09-12T03:03:34;101428.15;;;28.66;56.92
45441;BME280;31189;38.790;-77.084;2023-09-12T03:06:05;101428.91;;;28.43;57.06
45441;BME280;31189;38.790;-77.084;2023-09-12T03:08:30;101428.08;;;28.75;56.27
45441;BME280;31189;38.790;-77.084;2023-09-12T03:10:54;101428.15;;;28.55;56.75
45441;BME280;31189;38.790;-77.084;2023-09-12T03:13:22;101423.78;;;28.09;57.52
45441;BME280;31189;38.790;-77.084;2023-09-12T03:15:43;101424.50;;;28.41;57.69
45441;BME280;31189;38.790;-77.084;2023-09-12T03:18:10;101425.86;;;28.82;57.21
45441;BME280;31189;38.790;-77.084;2023-09-12T03:20:33;101427.59;;;28.58;56.87
45441;BME280;31189;38.790;-77.084;2023-09-12T03:23:04;101427.47;;;28.29;57.70
45441;BME280;31189;38.790;-77.084;2023-09-12T03:25:29;101429.02;;;28.67;57.35
45441;BME280;31189;38.790;-77.084;2023-09-12T03:27:55;101428.83;;;28.31;58.49
45441;BME280;31189;38.790;-77.084;2023-09-12T03:30:21;101425.64;;;27.87;59.53
45441;BME280;31189;38.790;-77.084;2023-09-12T03:32:41;101427.85;;;28.00;60.29
45441;BME280;31189;38.790;-77.084;2023-09-12T03:35:12;101420.10;;;28.34;60.40
45441;BME280;31189;38.790;-77.084;2023-09-12T03:37:38;101415.49;;;28.36;60.53
45441;BME280;31189;38.790;-77.084;2023-09-12T03:40:04;101414.17;;;28.35;59.85
45441;BME280;31189;38.790;-77.084;2023-09-12T03:42:33;101413.98;;;28.31;60.07
45441;BME280;31189;38.790;-77.084;2023-09-12T03:44:49;101418.33;;;27.86;59.97
45441;BME280;31189;38.790;-77.084;2023-09-12T03:47:20;101413.96;;;28.24;57.53
45441;BME280;31189;38.790;-77.084;2023-09-12T03:49:41;101415.42;;;27.96;59.34
45441;BME280;31189;38.790;-77.084;2023-09-12T03:52:11;101418.08;;;28.09;59.60
45441;BME280;31189;38.790;-77.084;2023-09-12T03:54:37;101415.34;;;28.19;59.77
45441;BME280;31189;38.790;-77.084;2023-09-12T03:56:59;101418.23;;;28.15;60.37
45441;BME280;31189;38.790;-77.084;2023-09-12T03:59:23;101415.72;;;27.85;59.97
45441;BME280;31189;38.790;-77.084;2023-09-12T04:01:54;101422.48;;;28.40;58.62
45441;BME280;31189;38.790;-77.084;2023-09-12T04:04:15;101430.41;;;28.88;57.32
45441;BME280;31189;38.790;-77.084;2023-09-12T04:06:41;101438.01;;;28.76;57.29
45441;BME280;31189;38.790;-77.084;2023-09-12T04:09:11;101442.99;;;28.78;57.55
45441;BME280;31189;38.790;-77.084;2023-09-12T04:11:32;101445.07;;;28.60;57.67
45441;BME280;31189;38.790;-77.084;2023-09-12T04:13:57;101444.64;;;27.79;59.59
45441;BME280;31189;38.790;-77.084;2023-09-12T04:16:28;101449.03;;;28.56;58.33
45441;BME280;31189;38.790;-77.084;2023-09-12T04:18:58;101446.25;;;28.69;57.43
45441;BME280;31189;38.790;-77.084;2023-09-12T04:21:14;101447.55;;;28.81;56.89
45441;BME280;31189;38.790;-77.084;2023-09-12T04:23:45;101447.21;;;28.37;57.77
45441;BME280;31189;38.790;-77.084;2023-09-12T04:26:05;101445.72;;;28.31;58.07
45441;BME280;31189;38.790;-77.084;2023-09-12T04:28:36;101442.74;;;28.17;59.70
45441;BME280;31189;38.790;-77.084;2023-09-12T04:31:02;101443.35;;;28.37;58.74
45441;BME280;31189;38.790;-77.084;2023-09-12T04:33:27;101441.43;;;28.51;58.78
45441;BME280;31189;38.790;-77.084;2023-09-12T04:36:00;101435.99;;;28.41;59.35
45441;BME280;31189;38.790;-77.084;2023-09-12T04:38:19;101434.90;;;28.67;58.76
45441;BME280;31189;38.790;-77.084;2023-09-12T04:40:53;101435.58;;;28.76;57.99
45441;BME280;31189;38.790;-77.084;2023-09-12T04:43:10;101433.72;;;29.06;56.65
45441;BME280;31189;38.790;-77.084;2023-09-12T04:45:35;101433.75;;;29.13;55.58
45441;BME280;31189;38.790;-77.084;2023-09-12T04:48:01;101429.04;;;29.55;54.90
45441;BME280;31189;38.790;-77.084;2023-09-12T04:50:31;101423.61;;;29.28;55.77
45441;BME280;31189;38.790;-77.084;2023-09-12T04:52:47;101424.05;;;29.12;55.90
45441;BME280;31189;38.790;-77.084;2023-09-12T04:55:18;101427.94;;;29.36;55.81
45441;BME280;31189;38.790;-77.084;2023-09-12T04:57:48;101423.62;;;29.44;55.68
45441;BME280;31189;38.790;-77.084;2023-09-12T05:00:05;101414.41;;;29.55;55.46
45441;BME280;31189;38.790;-77.084;2023-09-12T05:02:30;101417.51;;;29.28;55.49
45441;BME280;31189;38.790;-77.084;2023-09-12T05:04:56;101422.24;;;29.29;54.55
45441;BME280;31189;38.790;-77.084;2023-09-12T05:07:21;101423.15;;;28.64;56.29
45441;BME280;31189;38.790;-77.084;2023-09-12T05:09:46;101418.43;;;28.78;56.45
45441;BME280;31189;38.790;-77.084;2023-09-12T05:12:12;101408.73;;;28.80;56.53
45441;BME280;31189;38.790;-77.084;2023-09-12T05:14:37;101408.53;;;29.01;56.57
45441;BME280;31189;38.790;-77.084;2023-09-12T05:17:03;101413.25;;;28.81;56.83
45441;BME280;31189;38.790;-77.084;2023-09-12T05:19:30;101411.45;;;28.67;57.44
45441;BME280;31189;38.790;-77.084;2023-09-12T05:21:54;101405.78;;;28.65;56.93
45441;BME280;31189;38.790;-77.084;2023-09-12T05:24:20;101396.35;;;28.80;56.84
45441;BME280;31189;38.790;-77.084;2023-09-12T05:26:45;101390.89;;;28.99;56.44
45441;BME280;31189;38.790;-77.084;2023-09-12T05:29:11;101394.79;;;28.77;56.30
45441;BME280;31189;38.790;-77.084;2023-09-12T05:31:37;101396.25;;;28.07;58.11
45441;BME280;31189;38.790;-77.084;2023-09-12T05:34:02;101400.28;;;28.07;58.62
45441;BME280;31189;38.790;-77.084;2023-09-12T05:36:28;101400.71;;;28.33;57.91
45441;BME280;31189;38.790;-77.084;2023-09-12T05:38:53;101401.44;;;28.14;58.17
45441;BME280;31189;38.790;-77.084;2023-09-12T05:41:19;101396.47;;;28.04;58.27
45441;BME280;31189;38.790;-77.084;2023-09-12T05:43:44;101399.27;;;28.13;58.24
45441;BME280;31189;38.790;-77.084;2023-09-12T05:46:10;101404.62;;;28.41;57.39
45441;BME280;31189;38.790;-77.084;2023-09-12T05:48:35;101402.06;;;28.52;57.02
45441;BME280;31189;38.790;-77.084;2023-09-12T05:51:01;101398.80;;;28.59;57.53
45441;BME280;31189;38.790;-77.084;2023-09-12T05:53:27;101399.34;;;28.72;57.25
45441;BME280;31189;38.790;-77.084;2023-09-12T05:55:52;101391.11;;;28.88;56.91
45441;BME280;31189;38.790;-77.084;2023-09-12T05:58:18;101393.98;;;28.35;57.27
45441;BME280;31189;38.790;-77.084;2023-09-12T06:00:44;101392.50;;;28.45;57.78
45441;BME280;31189;38.790;-77.084;2023-09-12T06:03:09;101393.88;;;28.68;57.76
45441;BME280;31189;38.790;-77.084;2023-09-12T06:05:35;101394.00;;;28.69;57.08
45441;BME280;31189;38.790;-77.084;2023-09-12T06:08:01;101387.29;;;28.43;56.27
45441;BME280;31189;38.790;-77.084;2023-09-12T06:10:26;101382.07;;;28.78;55.97
45441;BME280;31189;38.790;-77.084;2023-09-12T06:12:52;101385.51;;;28.81;55.88
45441;BME280;31189;38.790;-77.084;2023-09-12T06:15:18;101389.90;;;28.60;56.74
45441;BME280;31189;38.790;-77.084;2023-09-12T06:17:43;101389.81;;;28.30;56.69
45441;BME280;31189;38.790;-77.084;2023-09-12T06:20:10;101389.34;;;27.95;57.35
45441;BME280;31189;38.790;-77.084;2023-09-12T06:22:35;101388.83;;;27.95;58.36
45441;BME280;31189;38.790;-77.084;2023-09-12T06:25:00;101388.49;;;27.93;58.34
45441;BME280;31189;38.790;-77.084;2023-09-12T06:27:26;101387.88;;;28.13;59.25
45441;BME280;31189;38.790;-77.084;2023-09-12T06:29:51;101379.79;;;27.92;58.81
45441;BME280;31189;38.790;-77.084;2023-09-12T06:32:18;101372.96;;;28.18;58.22
45441;BME280;31189;38.790;-77.084;2023-09-12T06:34:43;101366.62;;;28.06;58.20
45441;BME280;31189;38.790;-77.084;2023-09-12T06:37:10;101370.73;;;27.07;60.68
45441;BME280;31189;38.790;-77.084;2023-09-12T06:39:34;101370.08;;;27.92;59.07
45441;BME280;31189;38.790;-77.084;2023-09-12T06:42:00;101369.98;;;27.68;58.74
45441;BME280;31189;38.790;-77.084;2023-09-12T06:44:25;101372.65;;;27.89;56.18
45441;BME280;31189;38.790;-77.084;2023-09-12T06:46:51;101372.07;;;27.97;57.11
45441;BME280;31189;38.790;-77.084;2023-09-12T06:49:17;101370.10;;;27.75;57.76
45441;BME280;31189;38.790;-77.084;2023-09-12T06:51:42;101367.30;;;27.90;57.80
45441;BME280;31189;38.790;-77.084;2023-09-12T06:54:08;101364.81;;;28.21;57.53
45441;BME280;31189;38.790;-77.084;2023-09-12T06:56:33;101361.24;;;28.25;57.03
45441;BME280;31189;38.790;-77.084;2023-09-12T06:58:59;101359.36;;;28.31;56.86
45441;BME280;31189;38.790;-77.084;2023-09-12T07:01:24;101359.88;;;28.43;56.69
45441;BME280;31189;38.790;-77.084;2023-09-12T07:03:50;101356.96;;;27.79;56.86
45441;BME280;31189;38.790;-77.084;2023-09-12T07:06:16;101355.19;;;27.39;57.46
45441;BME280;31189;38.790;-77.084;2023-09-12T07:08:41;101350.52;;;27.87;57.28
45441;BME280;31189;38.790;-77.084;2023-09-12T07:11:07;101345.55;;;27.87;56.83
45441;BME280;31189;38.790;-77.084;2023-09-12T07:13:33;101345.33;;;28.19;56.58
45441;BME280;31189;38.790;-77.084;2023-09-12T07:15:59;101347.00;;;28.39;56.31
45441;BME280;31189;38.790;-77.084;2023-09-12T07:18:24;101353.07;;;27.08;58.73
45441;BME280;31189;38.790;-77.084;2023-09-12T07:20:57;101353.21;;;27.25;58.60
45441;BME280;31189;38.790;-77.084;2023-09-12T07:23:15;101348.46;;;27.80;58.39
45441;BME280;31189;38.790;-77.084;2023-09-12T07:25:41;101349.83;;;27.67;58.65
45441;BME280;31189;38.790;-77.084;2023-09-12T07:28:06;101353.27;;;27.29;58.31
45441;BME280;31189;38.790;-77.084;2023-09-12T07:30:32;101352.91;;;27.78;58.00
45441;BME280;31189;38.790;-77.084;2023-09-12T07:32:57;101353.93;;;27.75;57.43
45441;BME280;31189;38.790;-77.084;2023-09-12T07:35:23;101351.53;;;27.86;56.66
45441;BME280;31189;38.790;-77.084;2023-09-12T07:37:48;101350.21;;;28.00;56.86
45441;BME280;31189;38.790;-77.084;2023-09-12T07:40:14;101348.06;;;27.85;57.33
45441;BME280;31189;38.790;-77.084;2023-09-12T07:42:40;101344.14;;;27.71;57.38
45441;BME280;31189;38.790;-77.084;2023-09-12T07:45:06;101340.84;;;27.93;57.00
45441;BME280;31189;38.790;-77.084;2023-09-12T07:47:32;101343.00;;;27.52;57.63
45441;BME280;31189;38.790;-77.084;2023-09-12T07:49:56;101346.89;;;27.26;57.93
45441;BME280;31189;38.790;-77.084;2023-09-12T07:52:22;101352.39;;;26.90;58.88
45441;BME280;31189;38.790;-77.084;2023-09-12T07:54:49;101355.99;;;27.10;59.23
45441;BME280;31189;38.790;-77.084;2023-09-12T07:57:13;101352.56;;;27.47;58.64
45441;BME280;31189;38.790;-77.084;2023-09-12T07:59:38;101352.69;;;27.67;58.54
45441;BME280;31189;38.790;-77.084;2023-09-12T08:02:04;101355.08;;;27.46;58.21
45441;BME280;31189;38.790;-77.084;2023-09-12T08:04:30;101358.82;;;27.25;59.50
45441;BME280;31189;38.790;-77.084;2023-09-12T08:06:55;101361.26;;;27.14;59.28
45441;BME280;31189;38.790;-77.084;2023-09-12T08:09:21;101359.80;;;27.17;58.54
45441;BME280;31189;38.790;-77.084;2023-09-12T08:11:46;101359.49;;;27.30;58.74
45441;BME280;31189;38.790;-77.084;2023-09-12T08:14:12;101355.67;;;27.40;59.13
45441;BME280;31189;38.790;-77.084;2023-09-12T08:16:38;101353.82;;;27.43;59.17
45441;BME280;31189;38.790;-77.084;2023-09-12T08:19:03;101349.62;;;27.23;58.67
45441;BME280;31189;38.790;-77.084;2023-09-12T08:21:29;101347.67;;;27.70;58.69
45441;BME280;31189;38.790;-77.084;2023-09-12T08:23:54;101345.45;;;27.99;57.74
45441;BME280;31189;38.790;-77.084;2023-09-12T08:26:20;101347.15;;;27.50;57.86
45441;BME280;31189;38.790;-77.084;2023-09-12T08:28:45;101346.77;;;27.32;58.72
45441;BME280;31189;38.790;-77.084;2023-09-12T08:31:11;101349.82;;;27.05;59.18
45441;BME280;31189;38.790;-77.084;2023-09-12T08:33:36;101347.54;;;27.77;58.16
45441;BME280;31189;38.790;-77.084;2023-09-12T08:36:02;101346.70;;;27.76;57.38
45441;BME280;31189;38.790;-77.084;2023-09-12T08:38:28;101345.70;;;27.79;57.00
45441;BME280;31189;38.790;-77.084;2023-09-12T08:40:53;101343.70;;;27.81;57.87
45441;BME280;31189;38.790;-77.084;2023-09-12T08:43:20;101345.53;;;27.73;57.87
45441;BME280;31189;38.790;-77.084;2023-09-12T08:45:45;101345.51;;;27.90;57.29
45441;BME280;31189;38.790;-77.084;2023-09-12T08:48:11;101348.99;;;28.22;55.72
45441;BME280;31189;38.790;-77.084;2023-09-12T08:50:35;101344.86;;;27.88;56.37
45441;BME280;31189;38.790;-77.084;2023-09-12T08:53:01;101342.24;;;27.47;57.31
45441;BME280;31189;38.790;-77.084;2023-09-12T08:55:28;101344.47;;;28.15;57.01
45441;BME280;31189;38.790;-77.084;2023-09-12T08:57:55;101342.10;;;27.58;56.90
45441;BME280;31189;38.790;-77.084;2023-09-12T09:00:18;101339.57;;;27.57;57.25
45441;BME280;31189;38.790;-77.084;2023-09-12T09:02:44;101337.82;;;28.01;56.96
45441;BME280;31189;38.790;-77.084;2023-09-12T09:05:11;101341.73;;;28.03;56.23
45441;BME280;31189;38.790;-77.084;2023-09-12T09:07:36;101346.44;;;28.01;56.14
45441;BME280;31189;38.790;-77.084;2023-09-12T09:10:03;101350.81;;;27.79;55.87
45441;BME280;31189;38.790;-77.084;2023-09-12T09:12:28;101362.24;;;27.40;57.04
45441;BME280;31189;38.790;-77.084;2023-09-12T09:14:51;101368.06;;;27.68;57.45
45441;BME280;31189;38.790;-77.084;2023-09-12T09:17:18;101370.68;;;27.32;58.00
45441;BME280;31189;38.790;-77.084;2023-09-12T09:19:44;101373.24;;;27.22;57.53
45441;BME280;31189;38.790;-77.084;2023-09-12T09:22:09;101365.71;;;27.42;57.13
45441;BME280;31189;38.790;-77.084;2023-09-12T09:24:34;101372.01;;;28.02;57.38
45441;BME280;31189;38.790;-77.084;2023-09-12T09:26:59;101373.83;;;28.24;56.61
45441;BME280;31189;38.790;-77.084;2023-09-12T09:29:25;101380.01;;;27.74;56.41
45441;BME280;31189;38.790;-77.084;2023-09-12T09:31:52;101379.37;;;27.53;56.79
45441;BME280;31189;38.790;-77.084;2023-09-12T09:34:17;101387.11;;;27.28;57.43
45441;BME280;31189;38.790;-77.084;2023-09-12T09:36:42;101392.58;;;27.37;57.74
45441;BME280;31189;38.790;-77.084;2023-09-12T09:39:07;101398.87;;;26.10;61.34
45441;BME280;31189;38.790;-77.084;2023-09-12T09:41:33;101397.89;;;27.45;57.19
45441;BME280;31189;38.790;-77.084;2023-09-12T09:43:58;101394.19;;;27.91;57.11
45441;BME280;31189;38.790;-77.084;2023-09-12T09:46:24;101392.07;;;27.63;57.34
45441;BME280;31189;38.790;-77.084;2023-09-12T09:48:50;101389.02;;;27.43;57.40
45441;BME280;31189;38.790;-77.084;2023-09-12T09:51:15;101388.71;;;27.85;57.39
45441;BME280;31189;38.790;-77.084;2023-09-12T09:53:40;101387.29;;;27.80;57.77
45441;BME280;31189;38.790;-77.084;2023-09-12T09:56:10;101388.24;;;27.22;58.68
45441;BME280;31189;38.790;-77.084;2023-09-12T09:58:31;101389.05;;;27.47;58.63
45441;BME280;31189;38.790;-77.084;2023-09-12T10:00:57;101383.48;;;27.39;58.52
45441;BME280;31189;38.790;-77.084;2023-09-12T10:03:22;101377.49;;;27.52;58.00
45441;BME280;31189;38.790;-77.084;2023-09-12T10:05:49;101375.78;;;27.65;57.26
45441;BME280;31189;38.790;-77.084;2023-09-12T10:08:14;101377.26;;;27.79;57.51
45441;BME280;31189;38.790;-77.084;2023-09-12T10:10:40;101373.58;;;28.16;56.94
45441;BME280;31189;38.790;-77.084;2023-09-12T10:13:05;101371.11;;;27.83;56.28
45441;BME280;31189;38.790;-77.084;2023-09-12T10:15:30;101367.32;;;28.39;56.18
45441;BME280;31189;38.790;-77.084;2023-09-12T10:17:57;101363.38;;;27.86;56.14
45441;BME280;31189;38.790;-77.084;2023-09-12T10:20:25;101360.92;;;26.57;59.11
45441;BME280;31189;38.790;-77.084;2023-09-12T10:22:52;101355.85;;;26.96;59.43
45441;BME280;31189;38.790;-77.084;2023-09-12T10:25:13;101355.97;;;26.66;60.22
45441;BME280;31189;38.790;-77.084;2023-09-12T10:27:38;101350.67;;;26.41;61.05
45441;BME280;31189;38.790;-77.084;2023-09-12T10:30:05;101355.43;;;26.16;61.96
45441;BME280;31189;38.790;-77.084;2023-09-12T10:32:30;101356.98;;;26.01;61.79
45441;BME280;31189;38.790;-77.084;2023-09-12T10:34:58;101359.45;;;26.86;60.36
45441;BME280;31189;38.790;-77.084;2023-09-12T10:37:22;101358.64;;;27.32;59.71
45441;BME280;31189;38.790;-77.084;2023-09-12T10:39:46;101361.14;;;26.89;59.05
45441;BME280;31189;38.790;-77.084;2023-09-12T10:42:13;101366.03;;;27.18;58.58
45441;BME280;31189;38.790;-77.084;2023-09-12T10:44:37;101370.95;;;27.41;58.13
45441;BME280;31189;38.790;-77.084;2023-09-12T10:47:04;101379.02;;;27.39;57.01
45441;BME280;31189;38.790;-77.084;2023-09-12T10:49:29;101383.74;;;27.57;55.92
45441;BME280;31189;38.790;-77.084;2023-09-12T10:51:54;101384.40;;;27.86;55.95
45441;BME280;31189;38.790;-77.084;2023-09-12T10:54:25;101390.92;;;27.21;56.47
45441;BME280;31189;38.790;-77.084;2023-09-12T10:56:45;101397.86;;;27.69;56.67
45441;BME280;31189;38.790;-77.084;2023-09-12T10:59:12;101397.97;;;27.38;56.44
45441;BME280;31189;38.790;-77.084;2023-09-12T11:01:37;101400.70;;;27.43;56.23
45441;BME280;31189;38.790;-77.084;2023-09-12T11:06:29;101400.28;;;26.81;58.23
45441;BME280;31189;38.790;-77.084;2023-09-12T11:11:19;101397.28;;;26.93;58.34
45441;BME280;31189;38.790;-77.084;2023-09-12T11:13:44;101396.03;;;27.42;57.70
45441;BME280;31189;38.790;-77.084;2023-09-12T11:16:11;101402.91;;;27.33;57.04
45441;BME280;31189;38.790;-77.084;2023-09-12T11:21:01;101410.72;;;26.97;57.61
45441;BME280;31189;38.790;-77.084;2023-09-12T11:23:27;101412.67;;;27.51;57.17
45441;BME280;31189;38.790;-77.084;2023-09-12T11:26:04;101419.55;;;27.25;56.56
45441;BME280;31189;38.790;-77.084;2023-09-12T11:28:19;101420.79;;;27.53;56.41
45441;BME280;31189;38.790;-77.084;2023-09-12T11:33:11;101427.18;;;27.26;56.54
45441;BME280;31189;38.790;-77.084;2023-09-12T11:35:37;101429.56;;;27.67;57.03
45441;BME280;31189;38.790;-77.084;2023-09-12T11:38:00;101431.01;;;27.73;56.82
45441;BME280;31189;38.790;-77.084;2023-09-12T11:40:41;101433.88;;;27.52;57.07
45441;BME280;31189;38.790;-77.084;2023-09-12T11:42:52;101435.73;;;27.13;57.58
45441;BME280;31189;38.790;-77.084;2023-09-12T11:45:18;101442.52;;;27.56;57.75
45441;BME280;31189;38.790;-77.084;2023-09-12T11:47:43;101446.10;;;27.60;57.88
45441;BME280;31189;38.790;-77.084;2023-09-12T11:50:09;101447.50;;;27.11;58.28
45441;BME280;31189;38.790;-77.084;2023-09-12T11:52:36;101444.05;;;27.91;57.71
45441;BME280;31189;38.790;-77.084;2023-09-12T11:54:59;101441.87;;;27.70;57.28
45441;BME280;31189;38.790;-77.084;2023-09-12T11:57:25;101435.02;;;27.90;56.69
45441;BME280;31189;38.790;-77.084;2023-09-12T11:59:50;101430.80;;;28.02;56.49
45441;BME280;31189;38.790;-77.084;2023-09-12T12:02:16;101432.02;;;27.79;57.78
45441;BME280;31189;38.790;-77.084;2023-09-12T12:04:41;101429.10;;;28.00;57.27
45441;BME280;31189;38.790;-77.084;2023-09-12T12:07:10;101429.03;;;28.20;57.33
45441;BME280;31189;38.790;-77.084;2023-09-12T12:09:32;101434.52;;;28.34;57.20
45441;BME280;31189;38.790;-77.084;2023-09-12T12:14:23;101438.61;;;28.56;56.70
45441;BME280;31189;38.790;-77.084;2023-09-12T12:16:49;101436.65;;;28.98;56.86
45441;BME280;31189;38.790;-77.084;2023-09-12T12:19:14;101435.48;;;28.82;56.68
45441;BME280;31189;38.790;-77.084;2023-09-12T12:21:41;101431.23;;;28.97;55.85
45441;BME280;31189;38.790;-77.084;2023-09-12T12:24:11;101430.16;;;29.35;55.62
45441;BME280;31189;38.790;-77.084;2023-09-12T12:26:31;101432.92;;;29.21;55.91
45441;BME280;31189;38.790;-77.084;2023-09-12T12:28:59;101435.60;;;29.40;55.81
45441;BME280;31189;38.790;-77.084;2023-09-12T12:31:23;101434.69;;;29.35;55.25
45441;BME280;31189;38.790;-77.084;2023-09-12T12:33:49;101434.30;;;29.54;54.72
45441;BME280;31189;38.790;-77.084;2023-09-12T12:36:14;101433.99;;;29.53;53.67
45441;BME280;31189;38.790;-77.084;2023-09-12T12:38:39;101429.77;;;29.46;54.11